sensor_id;sensor_type;location;lat;lon;timestamp;P1;durP1;ratioP1;P2;durP2;ratioP2
19219;SDS011;9744;49.364;7.484;2023-07-30T00:02:22;3.28;;;1.45;;
19219;SDS011;9744;49.364;7.484;2023-07-30T00:04:49;4.20;;;1.77;;
19219;SDS011;9744;49.364;7.484;2023-07-30T00:07:16;3.40;;;1.40;;
19219;SDS011;9744;49.364;7.484;2023-07-30T00:09:44;5.80;;;1.42;;
19219;SDS011;9744;49.364;7.484;2023-07-30T00:12:13;2.30;;;1.40;;
19219;SDS011;9744;49.364;7.484;2023-07-30T00:14:40;4.00;;;1.70;;
19219;SDS011;9744;49.364;7.484;2023-07-30T00:17:08;3.92;;;1.88;;
19219;SDS011;9744;49.364;7.484;2023-07-30T00:19:36;4.85;;;1.75;;
19219;SDS011;9744;49.364;7.484;2023-07-30T00:22:04;3.85;;;1.65;;
19219;SDS011;9744;49.364;7.484;2023-07-30T00:24:32;1.92;;;1.40;;
19219;SDS011;9744;49.364;7.484;2023-07-30T00:26:59;5.95;;;1.77;;
19219;SDS011;9744;49.364;7.484;2023-07-30T00:29:27;2.03;;;1.60;;
19219;SDS011;9744;49.364;7.484;2023-07-30T00:31:55;3.22;;;1.70;;
19219;SDS011;9744;49.364;7.484;2023-07-30T00:34:23;4.78;;;2.20;;
19219;SDS011;9744;49.364;7.484;2023-07-30T00:36:51;3.42;;;2.03;;
19219;SDS011;9744;49.364;7.484;2023-07-30T00:39:19;3.60;;;2.20;;
19219;SDS011;9744;49.364;7.484;2023-07-30T00:41:47;7.20;;;2.40;;
19219;SDS011;9744;49.364;7.484;2023-07-30T00:44:14;3.47;;;2.28;;
19219;SDS011;9744;49.364;7.484;2023-07-30T00:46:43;11.25;;;2.90;;
19219;SDS011;9744;49.364;7.484;2023-07-30T00:49:10;14.80;;;3.10;;
19219;SDS011;9744;49.364;7.484;2023-07-30T00:51:38;3.33;;;3.03;;
19219;SDS011;9744;49.364;7.484;2023-07-30T00:54:08;5.20;;;3.15;;
19219;SDS011;9744;49.364;7.484;2023-07-30T00:56:35;4.07;;;2.90;;
19219;SDS011;9744;49.364;7.484;2023-07-30T00:59:02;5.50;;;3.47;;
19219;SDS011;9744;49.364;7.484;2023-07-30T01:01:30;4.30;;;3.63;;
19219;SDS011;9744;49.364;7.484;2023-07-30T01:04:03;5.28;;;3.55;;
19219;SDS011;9744;49.364;7.484;2023-07-30T01:06:31;51.28;;;4.43;;
19219;SDS011;9744;49.364;7.484;2023-07-30T01:09:00;23.27;;;3.97;;
19219;SDS011;9744;49.364;7.484;2023-07-30T01:11:27;20.75;;;3.85;;
19219;SDS011;9744;49.364;7.484;2023-07-30T01:13:57;109.22;;;6.70;;
19219;SDS011;9744;49.364;7.484;2023-07-30T01:16:25;13.07;;;3.70;;
19219;SDS011;9744;49.364;7.484;2023-07-30T01:18:53;6.38;;;3.55;;
19219;SDS011;9744;49.364;7.484;2023-07-30T01:21:21;7.20;;;4.22;;
19219;SDS011;9744;49.364;7.484;2023-07-30T01:23:49;8.20;;;4.72;;
19219;SDS011;9744;49.364;7.484;2023-07-30T01:26:18;11.00;;;5.70;;
19219;SDS011;9744;49.364;7.484;2023-07-30T01:29:01;9.48;;;5.65;;
19219;SDS011;9744;49.364;7.484;2023-07-30T01:31:33;16.13;;;6.68;;
19219;SDS011;9744;49.364;7.484;2023-07-30T01:34:02;161.30;;;11.15;;
19219;SDS011;9744;49.364;7.484;2023-07-30T01:36:32;132.80;;;9.65;;
19219;SDS011;9744;49.364;7.484;2023-07-30T01:39:02;40.67;;;8.60;;
19219;SDS011;9744;49.364;7.484;2023-07-30T01:41:29;93.60;;;9.18;;
19219;SDS011;9744;49.364;7.484;2023-07-30T01:43:57;174.02;;;10.85;;
19219;SDS011;9744;49.364;7.484;2023-07-30T01:46:25;114.40;;;9.25;;
19219;SDS011;9744;49.364;7.484;2023-07-30T01:48:52;285.25;;;13.70;;
19219;SDS011;9744;49.364;7.484;2023-07-30T01:51:19;452.35;;;17.80;;
19219;SDS011;9744;49.364;7.484;2023-07-30T01:53:48;424.92;;;18.50;;
19219;SDS011;9744;49.364;7.484;2023-07-30T01:56:15;279.88;;;17.05;;
19219;SDS011;9744;49.364;7.484;2023-07-30T01:58:43;76.32;;;13.52;;
19219;SDS011;9744;49.364;7.484;2023-07-30T02:01:10;288.42;;;18.30;;
19219;SDS011;9744;49.364;7.484;2023-07-30T02:03:38;17.02;;;10.98;;
19219;SDS011;9744;49.364;7.484;2023-07-30T02:06:06;17.38;;;11.23;;
19219;SDS011;9744;49.364;7.484;2023-07-30T02:08:33;37.92;;;10.75;;
19219;SDS011;9744;49.364;7.484;2023-07-30T02:11:02;31.10;;;11.43;;
19219;SDS011;9744;49.364;7.484;2023-07-30T02:13:29;12.52;;;9.88;;
19219;SDS011;9744;49.364;7.484;2023-07-30T02:15:57;16.92;;;9.77;;
19219;SDS011;9744;49.364;7.484;2023-07-30T02:18:24;14.00;;;9.52;;
19219;SDS011;9744;49.364;7.484;2023-07-30T02:20:51;75.53;;;11.85;;
19219;SDS011;9744;49.364;7.484;2023-07-30T02:23:19;75.28;;;11.27;;
19219;SDS011;9744;49.364;7.484;2023-07-30T02:25:47;300.73;;;17.27;;
19219;SDS011;9744;49.364;7.484;2023-07-30T02:28:15;75.47;;;11.55;;
19219;SDS011;9744;49.364;7.484;2023-07-30T02:30:43;178.73;;;14.38;;
19219;SDS011;9744;49.364;7.484;2023-07-30T02:33:10;16.40;;;9.73;;
19219;SDS011;9744;49.364;7.484;2023-07-30T02:35:37;132.35;;;12.57;;
19219;SDS011;9744;49.364;7.484;2023-07-30T02:38:05;153.35;;;13.15;;
19219;SDS011;9744;49.364;7.484;2023-07-30T02:40:32;413.95;;;20.63;;
19219;SDS011;9744;49.364;7.484;2023-07-30T02:43:00;598.22;;;24.75;;
19219;SDS011;9744;49.364;7.484;2023-07-30T02:45:29;236.32;;;14.75;;
19219;SDS011;9744;49.364;7.484;2023-07-30T02:47:56;442.58;;;19.80;;
19219;SDS011;9744;49.364;7.484;2023-07-30T02:50:23;486.02;;;22.33;;
19219;SDS011;9744;49.364;7.484;2023-07-30T02:52:51;26.70;;;10.93;;
19219;SDS011;9744;49.364;7.484;2023-07-30T02:55:18;22.67;;;10.82;;
19219;SDS011;9744;49.364;7.484;2023-07-30T02:57:45;13.00;;;9.65;;
19219;SDS011;9744;49.364;7.484;2023-07-30T03:00:13;12.48;;;10.00;;
19219;SDS011;9744;49.364;7.484;2023-07-30T03:02:42;11.82;;;10.20;;
19219;SDS011;9744;49.364;7.484;2023-07-30T03:05:09;17.33;;;9.52;;
19219;SDS011;9744;49.364;7.484;2023-07-30T03:07:37;16.58;;;9.93;;
19219;SDS011;9744;49.364;7.484;2023-07-30T03:10:05;14.88;;;9.65;;
19219;SDS011;9744;49.364;7.484;2023-07-30T03:12:32;12.77;;;10.02;;
19219;SDS011;9744;49.364;7.484;2023-07-30T03:14:59;12.82;;;8.93;;
19219;SDS011;9744;49.364;7.484;2023-07-30T03:17:27;11.27;;;9.02;;
19219;SDS011;9744;49.364;7.484;2023-07-30T03:19:56;12.90;;;9.45;;
19219;SDS011;9744;49.364;7.484;2023-07-30T03:22:23;12.52;;;9.50;;
19219;SDS011;9744;49.364;7.484;2023-07-30T03:24:51;14.45;;;9.02;;
19219;SDS011;9744;49.364;7.484;2023-07-30T03:27:18;11.48;;;8.88;;
19219;SDS011;9744;49.364;7.484;2023-07-30T03:29:47;14.13;;;9.60;;
19219;SDS011;9744;49.364;7.484;2023-07-30T03:32:14;14.65;;;8.88;;
19219;SDS011;9744;49.364;7.484;2023-07-30T03:34:41;11.85;;;8.90;;
19219;SDS011;9744;49.364;7.484;2023-07-30T03:37:10;11.63;;;8.77;;
19219;SDS011;9744;49.364;7.484;2023-07-30T03:39:37;15.48;;;9.32;;
19219;SDS011;9744;49.364;7.484;2023-07-30T03:42:05;11.35;;;8.25;;
19219;SDS011;9744;49.364;7.484;2023-07-30T03:44:34;12.23;;;8.18;;
19219;SDS011;9744;49.364;7.484;2023-07-30T03:47:01;14.88;;;8.73;;
19219;SDS011;9744;49.364;7.484;2023-07-30T03:49:29;11.57;;;8.38;;
19219;SDS011;9744;49.364;7.484;2023-07-30T03:51:56;10.50;;;8.43;;
19219;SDS011;9744;49.364;7.484;2023-07-30T03:54:26;10.20;;;8.13;;
19219;SDS011;9744;49.364;7.484;2023-07-30T03:56:53;18.98;;;8.55;;
19219;SDS011;9744;49.364;7.484;2023-07-30T03:59:21;10.32;;;8.32;;
19219;SDS011;9744;49.364;7.484;2023-07-30T04:01:48;11.65;;;8.07;;
19219;SDS011;9744;49.364;7.484;2023-07-30T04:04:16;15.25;;;8.07;;
19219;SDS011;9744;49.364;7.484;2023-07-30T04:06:43;77.32;;;9.07;;
19219;SDS011;9744;49.364;7.484;2023-07-30T04:09:10;42.20;;;8.23;;
19219;SDS011;9744;49.364;7.484;2023-07-30T04:11:39;11.05;;;7.18;;
19219;SDS011;9744;49.364;7.484;2023-07-30T04:14:07;11.60;;;6.32;;
19219;SDS011;9744;49.364;7.484;2023-07-30T04:16:34;15.35;;;6.72;;
19219;SDS011;9744;49.364;7.484;2023-07-30T04:19:02;68.45;;;8.68;;
19219;SDS011;9744;49.364;7.484;2023-07-30T04:21:29;18.77;;;6.75;;
19219;SDS011;9744;49.364;7.484;2023-07-30T04:23:57;11.98;;;6.40;;
19219;SDS011;9744;49.364;7.484;2023-07-30T04:26:24;10.77;;;6.00;;
19219;SDS011;9744;49.364;7.484;2023-07-30T04:28:52;46.08;;;7.70;;
19219;SDS011;9744;49.364;7.484;2023-07-30T04:31:20;35.72;;;6.70;;
19219;SDS011;9744;49.364;7.484;2023-07-30T04:33:47;10.30;;;5.80;;
19219;SDS011;9744;49.364;7.484;2023-07-30T04:36:14;7.00;;;5.43;;
19219;SDS011;9744;49.364;7.484;2023-07-30T04:38:43;18.10;;;5.55;;
19219;SDS011;9744;49.364;7.484;2023-07-30T04:41:11;11.15;;;5.88;;
19219;SDS011;9744;49.364;7.484;2023-07-30T04:43:43;17.38;;;6.50;;
19219;SDS011;9744;49.364;7.484;2023-07-30T04:46:12;65.18;;;8.50;;
19219;SDS011;9744;49.364;7.484;2023-07-30T04:48:40;179.65;;;12.82;;
19219;SDS011;9744;49.364;7.484;2023-07-30T04:51:08;173.77;;;12.70;;
19219;SDS011;9744;49.364;7.484;2023-07-30T04:53:35;43.65;;;9.07;;
19219;SDS011;9744;49.364;7.484;2023-07-30T04:56:03;263.33;;;15.23;;
19219;SDS011;9744;49.364;7.484;2023-07-30T04:58:30;253.52;;;16.73;;
19219;SDS011;9744;49.364;7.484;2023-07-30T05:00:58;306.95;;;17.20;;
19219;SDS011;9744;49.364;7.484;2023-07-30T05:03:26;28.33;;;11.15;;
19219;SDS011;9744;49.364;7.484;2023-07-30T05:05:54;19.95;;;11.63;;
19219;SDS011;9744;49.364;7.484;2023-07-30T05:08:21;17.88;;;11.75;;
19219;SDS011;9744;49.364;7.484;2023-07-30T05:10:49;37.65;;;12.25;;
19219;SDS011;9744;49.364;7.484;2023-07-30T05:13:16;19.42;;;13.25;;
19219;SDS011;9744;49.364;7.484;2023-07-30T05:15:43;14.48;;;12.38;;
19219;SDS011;9744;49.364;7.484;2023-07-30T05:18:11;15.70;;;11.73;;
19219;SDS011;9744;49.364;7.484;2023-07-30T05:20:40;14.35;;;12.25;;
19219;SDS011;9744;49.364;7.484;2023-07-30T05:23:08;16.13;;;12.23;;
19219;SDS011;9744;49.364;7.484;2023-07-30T05:25:35;15.18;;;12.35;;
19219;SDS011;9744;49.364;7.484;2023-07-30T05:28:03;17.33;;;12.73;;
19219;SDS011;9744;49.364;7.484;2023-07-30T05:30:30;16.42;;;12.48;;
19219;SDS011;9744;49.364;7.484;2023-07-30T05:32:57;15.00;;;12.68;;
19219;SDS011;9744;49.364;7.484;2023-07-30T05:35:25;12.38;;;9.88;;
19219;SDS011;9744;49.364;7.484;2023-07-30T05:37:53;11.07;;;9.60;;
19219;SDS011;9744;49.364;7.484;2023-07-30T05:40:22;9.30;;;8.00;;
19219;SDS011;9744;49.364;7.484;2023-07-30T05:42:49;10.40;;;7.95;;
19219;SDS011;9744;49.364;7.484;2023-07-30T05:45:16;7.95;;;7.15;;
19219;SDS011;9744;49.364;7.484;2023-07-30T05:47:43;8.10;;;7.10;;
19219;SDS011;9744;49.364;7.484;2023-07-30T05:50:11;11.65;;;6.90;;
19219;SDS011;9744;49.364;7.484;2023-07-30T05:52:38;9.05;;;6.80;;
19219;SDS011;9744;49.364;7.484;2023-07-30T05:55:07;8.05;;;7.00;;
19219;SDS011;9744;49.364;7.484;2023-07-30T05:57:35;9.30;;;6.47;;
19219;SDS011;9744;49.364;7.484;2023-07-30T06:00:03;8.63;;;5.57;;
19219;SDS011;9744;49.364;7.484;2023-07-30T06:02:37;12.90;;;7.00;;
19219;SDS011;9744;49.364;7.484;2023-07-30T06:05:04;6.32;;;5.43;;
19219;SDS011;9744;49.364;7.484;2023-07-30T06:07:32;7.40;;;5.20;;
19219;SDS011;9744;49.364;7.484;2023-07-30T06:09:59;6.03;;;5.28;;
19219;SDS011;9744;49.364;7.484;2023-07-30T06:12:28;6.80;;;5.22;;
19219;SDS011;9744;49.364;7.484;2023-07-30T06:14:55;7.80;;;5.07;;
19219;SDS011;9744;49.364;7.484;2023-07-30T06:17:22;6.35;;;5.03;;
19219;SDS011;9744;49.364;7.484;2023-07-30T06:19:50;6.60;;;4.25;;
19219;SDS011;9744;49.364;7.484;2023-07-30T06:22:17;6.40;;;5.00;;
19219;SDS011;9744;49.364;7.484;2023-07-30T06:24:45;5.53;;;3.45;;
19219;SDS011;9744;49.364;7.484;2023-07-30T06:27:12;4.93;;;3.20;;
19219;SDS011;9744;49.364;7.484;2023-07-30T06:29:40;4.68;;;3.90;;
19219;SDS011;9744;49.364;7.484;2023-07-30T06:32:08;7.28;;;3.30;;
19219;SDS011;9744;49.364;7.484;2023-07-30T06:34:35;3.40;;;2.85;;
19219;SDS011;9744;49.364;7.484;2023-07-30T06:37:02;5.85;;;3.00;;
19219;SDS011;9744;49.364;7.484;2023-07-30T06:39:30;5.63;;;3.40;;
19219;SDS011;9744;49.364;7.484;2023-07-30T06:41:57;8.73;;;3.17;;
19219;SDS011;9744;49.364;7.484;2023-07-30T06:44:25;4.68;;;3.05;;
19219;SDS011;9744;49.364;7.484;2023-07-30T06:46:54;4.10;;;2.63;;
19219;SDS011;9744;49.364;7.484;2023-07-30T06:49:22;4.82;;;2.40;;
19219;SDS011;9744;49.364;7.484;2023-07-30T06:51:49;2.92;;;2.42;;
19219;SDS011;9744;49.364;7.484;2023-07-30T06:54:17;4.55;;;2.30;;
19219;SDS011;9744;49.364;7.484;2023-07-30T06:56:45;4.25;;;2.70;;
19219;SDS011;9744;49.364;7.484;2023-07-30T06:59:12;4.30;;;2.50;;
19219;SDS011;9744;49.364;7.484;2023-07-30T07:01:39;2.20;;;2.00;;
19219;SDS011;9744;49.364;7.484;2023-07-30T07:04:08;3.55;;;2.50;;
19219;SDS011;9744;49.364;7.484;2023-07-30T07:06:35;6.22;;;3.03;;
19219;SDS011;9744;49.364;7.484;2023-07-30T07:09:02;6.35;;;2.60;;
19219;SDS011;9744;49.364;7.484;2023-07-30T07:11:29;3.60;;;2.30;;
19219;SDS011;9744;49.364;7.484;2023-07-30T07:13:57;8.80;;;2.65;;
19219;SDS011;9744;49.364;7.484;2023-07-30T07:16:24;3.50;;;2.75;;
19219;SDS011;9744;49.364;7.484;2023-07-30T07:18:52;4.70;;;2.88;;
19219;SDS011;9744;49.364;7.484;2023-07-30T07:21:20;3.45;;;2.47;;
19219;SDS011;9744;49.364;7.484;2023-07-30T07:23:47;5.28;;;2.45;;
19219;SDS011;9744;49.364;7.484;2023-07-30T07:26:15;4.25;;;2.53;;
19219;SDS011;9744;49.364;7.484;2023-07-30T07:28:42;5.00;;;2.53;;
19219;SDS011;9744;49.364;7.484;2023-07-30T07:31:09;2.88;;;2.58;;
19219;SDS011;9744;49.364;7.484;2023-07-30T07:33:37;3.20;;;2.70;;
19219;SDS011;9744;49.364;7.484;2023-07-30T07:36:05;4.90;;;2.60;;
19219;SDS011;9744;49.364;7.484;2023-07-30T07:38:34;4.72;;;2.78;;
19219;SDS011;9744;49.364;7.484;2023-07-30T07:41:01;6.53;;;2.75;;
19219;SDS011;9744;49.364;7.484;2023-07-30T07:43:29;7.70;;;2.30;;
19219;SDS011;9744;49.364;7.484;2023-07-30T07:45:57;5.00;;;2.63;;
19219;SDS011;9744;49.364;7.484;2023-07-30T07:48:25;5.35;;;2.53;;
19219;SDS011;9744;49.364;7.484;2023-07-30T07:50:52;3.72;;;2.92;;
19219;SDS011;9744;49.364;7.484;2023-07-30T07:53:19;5.32;;;2.42;;
19219;SDS011;9744;49.364;7.484;2023-07-30T07:55:48;3.38;;;2.53;;
19219;SDS011;9744;49.364;7.484;2023-07-30T07:58:15;6.90;;;2.45;;
19219;SDS011;9744;49.364;7.484;2023-07-30T08:00:42;3.42;;;1.80;;
19219;SDS011;9744;49.364;7.484;2023-07-30T08:03:09;5.50;;;2.20;;
19219;SDS011;9744;49.364;7.484;2023-07-30T08:05:37;4.28;;;2.78;;
19219;SDS011;9744;49.364;7.484;2023-07-30T08:08:05;5.40;;;2.00;;
19219;SDS011;9744;49.364;7.484;2023-07-30T08:10:32;2.45;;;1.67;;
19219;SDS011;9744;49.364;7.484;2023-07-30T08:13:00;1.50;;;1.40;;
19219;SDS011;9744;49.364;7.484;2023-07-30T08:15:28;2.45;;;1.48;;
19219;SDS011;9744;49.364;7.484;2023-07-30T08:17:55;3.30;;;1.15;;
19219;SDS011;9744;49.364;7.484;2023-07-30T08:20:22;8.68;;;1.65;;
19219;SDS011;9744;49.364;7.484;2023-07-30T08:22:49;2.22;;;1.20;;
19219;SDS011;9744;49.364;7.484;2023-07-30T08:25:17;7.80;;;1.70;;
19219;SDS011;9744;49.364;7.484;2023-07-30T08:27:44;6.38;;;1.52;;
19219;SDS011;9744;49.364;7.484;2023-07-30T08:30:13;4.78;;;1.38;;
19219;SDS011;9744;49.364;7.484;2023-07-30T08:32:41;3.45;;;1.58;;
19219;SDS011;9744;49.364;7.484;2023-07-30T08:35:09;3.90;;;1.20;;
19219;SDS011;9744;49.364;7.484;2023-07-30T08:37:36;2.35;;;1.27;;
19219;SDS011;9744;49.364;7.484;2023-07-30T08:40:04;2.83;;;1.45;;
19219;SDS011;9744;49.364;7.484;2023-07-30T08:42:32;5.07;;;2.10;;
19219;SDS011;9744;49.364;7.484;2023-07-30T08:45:00;5.32;;;1.90;;
19219;SDS011;9744;49.364;7.484;2023-07-30T08:47:28;1.33;;;1.23;;
19219;SDS011;9744;49.364;7.484;2023-07-30T08:49:56;2.70;;;1.70;;
19219;SDS011;9744;49.364;7.484;2023-07-30T08:52:23;2.20;;;1.58;;
19219;SDS011;9744;49.364;7.484;2023-07-30T08:54:52;6.20;;;1.48;;
19219;SDS011;9744;49.364;7.484;2023-07-30T08:57:21;1.63;;;1.20;;
19219;SDS011;9744;49.364;7.484;2023-07-30T08:59:49;3.10;;;1.30;;
19219;SDS011;9744;49.364;7.484;2023-07-30T09:02:22;4.45;;;1.73;;
19219;SDS011;9744;49.364;7.484;2023-07-30T09:04:58;2.40;;;1.02;;
19219;SDS011;9744;49.364;7.484;2023-07-30T09:07:27;1.30;;;1.00;;
19219;SDS011;9744;49.364;7.484;2023-07-30T09:09:54;1.25;;;0.90;;
19219;SDS011;9744;49.364;7.484;2023-07-30T09:12:25;2.72;;;1.00;;
19219;SDS011;9744;49.364;7.484;2023-07-30T09:14:53;2.15;;;0.70;;
19219;SDS011;9744;49.364;7.484;2023-07-30T09:17:20;4.03;;;0.75;;
19219;SDS011;9744;49.364;7.484;2023-07-30T09:19:47;2.78;;;1.00;;
19219;SDS011;9744;49.364;7.484;2023-07-30T09:22:23;3.38;;;1.33;;
19219;SDS011;9744;49.364;7.484;2023-07-30T09:24:52;2.00;;;0.98;;
19219;SDS011;9744;49.364;7.484;2023-07-30T09:27:20;3.92;;;1.00;;
19219;SDS011;9744;49.364;7.484;2023-07-30T09:29:51;1.85;;;0.90;;
19219;SDS011;9744;49.364;7.484;2023-07-30T09:32:19;3.42;;;1.50;;
19219;SDS011;9744;49.364;7.484;2023-07-30T09:34:46;6.68;;;1.13;;
19219;SDS011;9744;49.364;7.484;2023-07-30T09:37:14;3.60;;;0.82;;
19219;SDS011;9744;49.364;7.484;2023-07-30T09:39:43;4.32;;;1.35;;
19219;SDS011;9744;49.364;7.484;2023-07-30T09:42:13;1.70;;;0.80;;
19219;SDS011;9744;49.364;7.484;2023-07-30T09:44:41;9.20;;;1.30;;
19219;SDS011;9744;49.364;7.484;2023-07-30T09:47:08;3.92;;;0.85;;
19219;SDS011;9744;49.364;7.484;2023-07-30T09:49:36;4.07;;;1.10;;
19219;SDS011;9744;49.364;7.484;2023-07-30T09:52:04;5.13;;;1.00;;
19219;SDS011;9744;49.364;7.484;2023-07-30T09:54:32;3.53;;;1.15;;
19219;SDS011;9744;49.364;7.484;2023-07-30T09:57:01;4.80;;;1.10;;
19219;SDS011;9744;49.364;7.484;2023-07-30T09:59:29;3.95;;;1.02;;
19219;SDS011;9744;49.364;7.484;2023-07-30T10:01:56;5.80;;;0.77;;
19219;SDS011;9744;49.364;7.484;2023-07-30T10:04:25;3.45;;;0.90;;
19219;SDS011;9744;49.364;7.484;2023-07-30T10:06:56;4.38;;;1.02;;
19219;SDS011;9744;49.364;7.484;2023-07-30T10:09:30;5.25;;;0.88;;
19219;SDS011;9744;49.364;7.484;2023-07-30T10:12:02;3.35;;;0.90;;
19219;SDS011;9744;49.364;7.484;2023-07-30T10:14:30;7.50;;;0.98;;
19219;SDS011;9744;49.364;7.484;2023-07-30T10:16:59;3.42;;;1.05;;
19219;SDS011;9744;49.364;7.484;2023-07-30T10:19:27;3.38;;;0.85;;
19219;SDS011;9744;49.364;7.484;2023-07-30T10:21:57;4.05;;;1.02;;
19219;SDS011;9744;49.364;7.484;2023-07-30T10:24:55;4.82;;;1.08;;
19219;SDS011;9744;49.364;7.484;2023-07-30T10:27:25;2.67;;;0.90;;
19219;SDS011;9744;49.364;7.484;2023-07-30T10:32:39;4.03;;;0.88;;
19219;SDS011;9744;49.364;7.484;2023-07-30T10:35:07;4.75;;;0.93;;
19219;SDS011;9744;49.364;7.484;2023-07-30T10:37:35;6.10;;;1.10;;
19219;SDS011;9744;49.364;7.484;2023-07-30T10:40:15;2.80;;;0.85;;
19219;SDS011;9744;49.364;7.484;2023-07-30T10:42:45;6.40;;;1.58;;
19219;SDS011;9744;49.364;7.484;2023-07-30T10:45:12;4.15;;;1.38;;
19219;SDS011;9744;49.364;7.484;2023-07-30T10:47:40;5.63;;;1.10;;
19219;SDS011;9744;49.364;7.484;2023-07-30T10:50:08;5.38;;;0.90;;
19219;SDS011;9744;49.364;7.484;2023-07-30T10:52:38;2.90;;;0.85;;
19219;SDS011;9744;49.364;7.484;2023-07-30T10:55:06;5.05;;;1.15;;
19219;SDS011;9744;49.364;7.484;2023-07-30T10:57:34;3.58;;;1.00;;
19219;SDS011;9744;49.364;7.484;2023-07-30T11:00:03;6.65;;;1.15;;
19219;SDS011;9744;49.364;7.484;2023-07-30T11:02:31;8.30;;;1.17;;
19219;SDS011;9744;49.364;7.484;2023-07-30T11:04:58;7.97;;;1.05;;
19219;SDS011;9744;49.364;7.484;2023-07-30T11:07:37;7.35;;;1.27;;
19219;SDS011;9744;49.364;7.484;2023-07-30T11:10:05;4.47;;;1.40;;
19219;SDS011;9744;49.364;7.484;2023-07-30T11:12:33;5.90;;;1.08;;
19219;SDS011;9744;49.364;7.484;2023-07-30T11:15:02;2.35;;;0.82;;
19219;SDS011;9744;49.364;7.484;2023-07-30T11:17:30;5.65;;;1.23;;
19219;SDS011;9744;49.364;7.484;2023-07-30T11:19:57;4.05;;;1.10;;
19219;SDS011;9744;49.364;7.484;2023-07-30T11:22:31;5.28;;;1.30;;
19219;SDS011;9744;49.364;7.484;2023-07-30T11:24:59;5.07;;;1.23;;
19219;SDS011;9744;49.364;7.484;2023-07-30T11:27:39;3.78;;;1.05;;
19219;SDS011;9744;49.364;7.484;2023-07-30T11:30:13;5.07;;;1.23;;
19219;SDS011;9744;49.364;7.484;2023-07-30T11:32:41;2.85;;;1.20;;
19219;SDS011;9744;49.364;7.484;2023-07-30T11:35:10;4.38;;;0.95;;
19219;SDS011;9744;49.364;7.484;2023-07-30T11:37:38;3.65;;;1.05;;
19219;SDS011;9744;49.364;7.484;2023-07-30T11:40:08;4.07;;;1.10;;
19219;SDS011;9744;49.364;7.484;2023-07-30T11:42:36;3.88;;;1.00;;
19219;SDS011;9744;49.364;7.484;2023-07-30T11:47:48;4.78;;;1.10;;
19219;SDS011;9744;49.364;7.484;2023-07-30T11:50:16;5.82;;;1.17;;
19219;SDS011;9744;49.364;7.484;2023-07-30T11:52:52;7.68;;;1.08;;
19219;SDS011;9744;49.364;7.484;2023-07-30T11:55:21;7.72;;;1.17;;
19219;SDS011;9744;49.364;7.484;2023-07-30T11:57:49;4.32;;;1.05;;
19219;SDS011;9744;49.364;7.484;2023-07-30T12:00:21;3.65;;;0.80;;
19219;SDS011;9744;49.364;7.484;2023-07-30T12:02:49;3.50;;;0.93;;
19219;SDS011;9744;49.364;7.484;2023-07-30T12:05:16;2.53;;;0.90;;
19219;SDS011;9744;49.364;7.484;2023-07-30T12:07:46;5.80;;;1.00;;
19219;SDS011;9744;49.364;7.484;2023-07-30T12:10:14;3.80;;;1.00;;
19219;SDS011;9744;49.364;7.484;2023-07-30T12:12:44;5.78;;;1.13;;
19219;SDS011;9744;49.364;7.484;2023-07-30T12:15:12;3.70;;;0.88;;
19219;SDS011;9744;49.364;7.484;2023-07-30T12:17:41;8.05;;;1.30;;
19219;SDS011;9744;49.364;7.484;2023-07-30T12:20:09;4.15;;;1.15;;
19219;SDS011;9744;49.364;7.484;2023-07-30T12:22:37;7.07;;;1.20;;
19219;SDS011;9744;49.364;7.484;2023-07-30T12:25:05;8.77;;;1.52;;
19219;SDS011;9744;49.364;7.484;2023-07-30T12:27:34;2.45;;;0.98;;
19219;SDS011;9744;49.364;7.484;2023-07-30T12:30:01;6.75;;;1.77;;
19219;SDS011;9744;49.364;7.484;2023-07-30T12:32:29;6.72;;;1.25;;
19219;SDS011;9744;49.364;7.484;2023-07-30T12:34:58;5.18;;;1.00;;
19219;SDS011;9744;49.364;7.484;2023-07-30T12:37:26;4.47;;;1.02;;
19219;SDS011;9744;49.364;7.484;2023-07-30T12:39:53;5.20;;;1.10;;
19219;SDS011;9744;49.364;7.484;2023-07-30T12:42:20;6.30;;;0.80;;
19219;SDS011;9744;49.364;7.484;2023-07-30T12:44:47;6.28;;;1.20;;
19219;SDS011;9744;49.364;7.484;2023-07-30T12:47:14;4.85;;;1.10;;
19219;SDS011;9744;49.364;7.484;2023-07-30T12:49:42;6.93;;;1.02;;
19219;SDS011;9744;49.364;7.484;2023-07-30T12:52:10;9.45;;;0.93;;
19219;SDS011;9744;49.364;7.484;2023-07-30T12:54:37;3.55;;;0.90;;
19219;SDS011;9744;49.364;7.484;2023-07-30T12:57:06;8.27;;;1.98;;
19219;SDS011;9744;49.364;7.484;2023-07-30T12:59:33;4.00;;;0.93;;
19219;SDS011;9744;49.364;7.484;2023-07-30T13:02:01;5.22;;;0.85;;
19219;SDS011;9744;49.364;7.484;2023-07-30T13:04:29;3.25;;;1.10;;
19219;SDS011;9744;49.364;7.484;2023-07-30T13:06:56;3.45;;;1.17;;
19219;SDS011;9744;49.364;7.484;2023-07-30T13:09:24;7.00;;;1.30;;
19219;SDS011;9744;49.364;7.484;2023-07-30T13:11:52;3.50;;;1.05;;
19219;SDS011;9744;49.364;7.484;2023-07-30T13:14:19;6.25;;;1.08;;
19219;SDS011;9744;49.364;7.484;2023-07-30T13:16:47;6.68;;;1.27;;
19219;SDS011;9744;49.364;7.484;2023-07-30T13:19:14;7.45;;;1.10;;
19219;SDS011;9744;49.364;7.484;2023-07-30T13:21:41;5.57;;;1.13;;
19219;SDS011;9744;49.364;7.484;2023-07-30T13:24:09;4.30;;;0.75;;
19219;SDS011;9744;49.364;7.484;2023-07-30T13:26:38;4.88;;;0.90;;
19219;SDS011;9744;49.364;7.484;2023-07-30T13:29:06;5.63;;;1.17;;
19219;SDS011;9744;49.364;7.484;2023-07-30T13:31:33;5.20;;;1.33;;
19219;SDS011;9744;49.364;7.484;2023-07-30T13:34:00;2.25;;;0.90;;
19219;SDS011;9744;49.364;7.484;2023-07-30T13:36:28;3.50;;;0.90;;
19219;SDS011;9744;49.364;7.484;2023-07-30T13:38:55;4.50;;;1.02;;
19219;SDS011;9744;49.364;7.484;2023-07-30T13:41:22;6.00;;;1.27;;
19219;SDS011;9744;49.364;7.484;2023-07-30T13:43:52;4.28;;;0.90;;
19219;SDS011;9744;49.364;7.484;2023-07-30T13:46:19;4.75;;;0.85;;
19219;SDS011;9744;49.364;7.484;2023-07-30T13:48:46;5.32;;;1.05;;
19219;SDS011;9744;49.364;7.484;2023-07-30T13:51:13;8.23;;;1.77;;
19219;SDS011;9744;49.364;7.484;2023-07-30T13:53:40;5.22;;;1.20;;
19219;SDS011;9744;49.364;7.484;2023-07-30T13:56:08;6.85;;;1.23;;
19219;SDS011;9744;49.364;7.484;2023-07-30T13:58:35;5.38;;;1.08;;
19219;SDS011;9744;49.364;7.484;2023-07-30T14:01:04;4.22;;;1.20;;
19219;SDS011;9744;49.364;7.484;2023-07-30T14:03:31;6.38;;;0.88;;
19219;SDS011;9744;49.364;7.484;2023-07-30T14:05:58;4.07;;;1.10;;
19219;SDS011;9744;49.364;7.484;2023-07-30T14:08:25;4.03;;;1.00;;
19219;SDS011;9744;49.364;7.484;2023-07-30T14:10:53;4.22;;;0.80;;
19219;SDS011;9744;49.364;7.484;2023-07-30T14:13:20;4.03;;;0.95;;
19219;SDS011;9744;49.364;7.484;2023-07-30T14:15:47;6.85;;;1.42;;
19219;SDS011;9744;49.364;7.484;2023-07-30T14:18:16;8.43;;;1.20;;
19219;SDS011;9744;49.364;7.484;2023-07-30T14:20:43;3.35;;;0.80;;
19219;SDS011;9744;49.364;7.484;2023-07-30T14:23:10;7.25;;;1.25;;
19219;SDS011;9744;49.364;7.484;2023-07-30T14:25:38;5.07;;;1.20;;
19219;SDS011;9744;49.364;7.484;2023-07-30T14:28:06;3.78;;;0.90;;
19219;SDS011;9744;49.364;7.484;2023-07-30T14:30:33;6.00;;;1.05;;
19219;SDS011;9744;49.364;7.484;2023-07-30T14:33:01;5.82;;;1.20;;
19219;SDS011;9744;49.364;7.484;2023-07-30T14:35:29;6.03;;;0.93;;
19219;SDS011;9744;49.364;7.484;2023-07-30T14:37:57;6.45;;;1.45;;
19219;SDS011;9744;49.364;7.484;2023-07-30T14:40:24;3.97;;;0.95;;
19219;SDS011;9744;49.364;7.484;2023-07-30T14:42:51;6.60;;;1.00;;
19219;SDS011;9744;49.364;7.484;2023-07-30T14:45:19;4.95;;;1.00;;
19219;SDS011;9744;49.364;7.484;2023-07-30T14:47:46;3.05;;;0.75;;
19219;SDS011;9744;49.364;7.484;2023-07-30T14:50:13;5.03;;;1.08;;
19219;SDS011;9744;49.364;7.484;2023-07-30T14:52:42;5.95;;;1.10;;
19219;SDS011;9744;49.364;7.484;2023-07-30T14:55:09;5.43;;;1.15;;
19219;SDS011;9744;49.364;7.484;2023-07-30T14:57:37;2.70;;;0.80;;
19219;SDS011;9744;49.364;7.484;2023-07-30T15:00:04;4.38;;;1.15;;
19219;SDS011;9744;49.364;7.484;2023-07-30T15:02:32;8.57;;;1.55;;
19219;SDS011;9744;49.364;7.484;2023-07-30T15:05:00;5.10;;;1.00;;
19219;SDS011;9744;49.364;7.484;2023-07-30T15:07:27;5.70;;;1.10;;